createdAt,value
2018-06-19T00:00:09.216Z,17.51
2018-06-19T00:01:09.176Z,17.46
2018-06-19T00:02:09.180Z,17.42
2018-06-19T00:03:09.220Z,17.49
2018-06-19T00:04:09.218Z,17.54
2018-06-19T00:05:09.221Z,17.53
2018-06-19T00:07:41.868Z,17.45
2018-06-19T00:08:42.082Z,17.40
2018-06-19T00:09:42.036Z,17.38
2018-06-19T00:10:42.085Z,17.36
2018-06-19T00:11:42.068Z,17.39
2018-06-19T00:12:42.100Z,17.36
2018-06-19T00:13:42.055Z,17.27
2018-06-19T00:14:43.887Z,17.28
2018-06-19T00:15:42.317Z,17.27
2018-06-19T00:16:48.117Z,17.32
2018-06-19T00:17:56.118Z,17.28
2018-06-19T00:18:42.103Z,17.28
2018-06-19T00:19:42.099Z,17.30
2018-06-19T00:20:42.033Z,17.32
2018-06-19T00:21:42.048Z,17.20
2018-06-19T00:22:42.039Z,17.18
2018-06-19T00:23:42.029Z,17.14
2018-06-19T00:24:42.055Z,17.24
2018-06-19T00:25:42.067Z,17.22
2018-06-19T00:26:42.049Z,17.15
2018-06-19T00:27:42.084Z,17.27
2018-06-19T00:28:42.083Z,17.25
2018-06-19T00:29:48.091Z,17.18
2018-06-19T00:30:48.451Z,17.12
2018-06-19T00:31:48.065Z,17.21
2018-06-19T00:32:42.053Z,17.15
2018-06-19T00:33:42.104Z,17.12
2018-06-19T00:34:42.104Z,17.12
2018-06-19T00:35:42.089Z,17.00
2018-06-19T00:36:42.117Z,17.02
2018-06-19T00:37:42.082Z,17.02
2018-06-19T00:38:42.086Z,16.98
2018-06-19T00:39:42.058Z,17.09
2018-06-19T00:40:41.666Z,17.15
2018-06-19T00:41:42.100Z,17.14
2018-06-19T00:42:41.242Z,17.21
2018-06-19T00:43:42.013Z,17.27
2018-06-19T00:44:42.823Z,17.20
2018-06-19T00:45:42.048Z,17.22
2018-06-19T00:46:42.343Z,17.24
2018-06-19T00:47:42.048Z,17.20
2018-06-19T00:48:42.063Z,17.20
2018-06-19T00:49:42.090Z,17.22
2018-06-19T00:50:42.048Z,17.27
2018-06-19T00:51:42.039Z,17.35
2018-06-19T00:52:42.036Z,17.25
2018-06-19T00:53:40.725Z,17.32
2018-06-19T00:54:42.066Z,17.30
2018-06-19T00:55:42.083Z,17.28
2018-06-19T00:56:42.365Z,17.25
2018-06-19T00:57:42.085Z,17.27
2018-06-19T00:58:42.116Z,17.28
2018-06-19T00:59:42.108Z,17.36
2018-06-19T01:00:42.088Z,17.36
2018-06-19T01:01:42.368Z,17.36
2018-06-19T01:02:42.109Z,17.28
2018-06-19T01:03:42.373Z,17.36
2018-06-19T01:04:42.226Z,17.27
2018-06-19T01:05:42.454Z,17.25
2018-06-19T01:06:42.163Z,17.36
2018-06-19T01:07:42.295Z,17.27
2018-06-19T01:08:42.155Z,17.33
2018-06-19T01:09:42.215Z,17.35
2018-06-19T01:10:48.286Z,17.45
2018-06-19T01:11:48.155Z,17.33
2018-06-19T01:12:42.233Z,17.43
2018-06-19T01:13:42.166Z,17.38
2018-06-19T01:14:42.401Z,17.45
2018-06-19T01:15:42.151Z,17.42
2018-06-19T01:16:42.437Z,17.35
2018-06-19T01:17:41.871Z,17.36
2018-06-19T01:18:42.371Z,17.42
2018-06-19T01:19:42.371Z,17.38
2018-06-19T01:20:42.371Z,17.42
2018-06-19T01:21:42.369Z,17.43
2018-06-19T01:22:42.247Z,17.43
2018-06-19T01:23:42.140Z,17.42
2018-06-19T01:24:44.030Z,17.40
2018-06-19T01:25:42.406Z,17.43
2018-06-19T01:26:42.203Z,17.32
2018-06-19T01:27:48.138Z,17.30
2018-06-19T01:28:48.114Z,17.33
2018-06-19T01:29:42.128Z,17.24
2018-06-19T01:30:42.122Z,17.30
2018-06-19T01:31:43.580Z,17.22
2018-06-19T01:32:42.676Z,17.35
2018-06-19T01:33:41.643Z,17.35
2018-06-19T01:34:42.231Z,17.24
2018-06-19T01:35:42.218Z,17.27
2018-06-19T01:36:48.167Z,17.24
2018-06-19T01:37:48.235Z,17.30
2018-06-19T01:38:42.164Z,17.32
2018-06-19T01:39:42.182Z,17.22
2018-06-19T01:40:42.169Z,17.40
2018-06-19T01:41:42.211Z,17.32
2018-06-19T01:42:42.176Z,17.28
2018-06-19T01:43:42.105Z,17.27
2018-06-19T01:44:42.167Z,17.18
2018-06-19T01:45:42.217Z,17.24
2018-06-19T01:46:42.187Z,17.24
2018-06-19T01:47:42.177Z,17.17
2018-06-19T01:48:42.177Z,17.30
2018-06-19T01:49:42.150Z,17.28
2018-06-19T01:50:42.148Z,17.33
2018-06-19T01:51:41.700Z,17.20
2018-06-19T01:52:42.162Z,17.17
2018-06-19T01:53:42.217Z,17.32
2018-06-19T01:54:48.249Z,17.28
2018-06-19T01:55:48.205Z,17.21
2018-06-19T01:56:42.193Z,17.20
2018-06-19T01:57:48.164Z,17.24
2018-06-19T01:58:48.173Z,17.24
2018-06-19T01:59:42.291Z,17.24
2018-06-19T02:00:42.159Z,17.25
2018-06-19T02:01:42.442Z,17.25
2018-06-19T02:02:42.222Z,17.12
2018-06-19T02:03:42.201Z,17.14
2018-06-19T02:04:44.034Z,17.10
2018-06-19T02:05:42.158Z,17.14
2018-06-19T02:06:42.161Z,17.22
2018-06-19T02:07:44.348Z,17.22
2018-06-19T02:08:42.276Z,17.27
2018-06-19T02:09:42.700Z,17.20
2018-06-19T02:10:42.282Z,17.22
2018-06-19T02:11:42.200Z,17.28
2018-06-19T02:12:42.167Z,17.27
2018-06-19T02:13:42.169Z,17.18
2018-06-19T02:14:42.169Z,17.22
2018-06-19T02:15:42.161Z,17.24
2018-06-19T02:16:42.209Z,17.18
2018-06-19T02:17:42.177Z,17.22
2018-06-19T02:18:42.171Z,17.22
2018-06-19T02:19:42.203Z,17.18
2018-06-19T02:20:42.199Z,17.20
2018-06-19T02:21:42.169Z,17.21
2018-06-19T02:22:42.134Z,17.12
2018-06-19T02:23:42.218Z,17.20
2018-06-19T02:24:42.211Z,17.21
2018-06-19T02:25:48.262Z,17.17
2018-06-19T02:26:48.205Z,17.24
2018-06-19T02:27:42.226Z,17.10
2018-06-19T02:28:42.197Z,17.22
2018-06-19T02:29:42.349Z,17.25
2018-06-19T02:30:42.256Z,17.22
2018-06-19T02:31:42.197Z,17.28
2018-06-19T02:32:42.160Z,17.25
2018-06-19T02:33:42.176Z,17.14
2018-06-19T02:34:42.153Z,17.21
2018-06-19T02:35:42.189Z,17.25
2018-06-19T02:36:42.151Z,17.20
2018-06-19T02:37:42.194Z,17.21
2018-06-19T02:38:41.555Z,17.15
2018-06-19T02:39:42.123Z,17.24
2018-06-19T02:40:42.189Z,17.24
2018-06-19T02:41:42.205Z,17.09
2018-06-19T02:42:42.198Z,17.15
2018-06-19T02:43:42.155Z,17.14
2018-06-19T02:44:42.197Z,17.10
2018-06-19T02:45:42.237Z,17.10
2018-06-19T02:46:42.172Z,17.22
2018-06-19T02:47:42.164Z,17.14
2018-06-19T02:48:42.209Z,17.25
2018-06-19T02:49:42.173Z,17.22
2018-06-19T02:50:42.204Z,17.12
2018-06-19T02:51:42.193Z,17.09
2018-06-19T02:52:42.256Z,17.20
2018-06-19T02:53:41.657Z,17.09
2018-06-19T02:54:42.404Z,17.14
2018-06-19T02:55:42.223Z,17.22
2018-06-19T02:56:48.177Z,17.22
2018-06-19T02:57:56.259Z,17.10
2018-06-19T02:58:42.212Z,17.17
2018-06-19T02:59:42.201Z,17.22
2018-06-19T03:00:42.220Z,17.15
2018-06-19T03:01:42.220Z,17.22
2018-06-19T03:02:42.182Z,17.24
2018-06-19T03:03:42.532Z,17.20
2018-06-19T03:04:41.933Z,17.17
2018-06-19T03:05:41.879Z,17.24
2018-06-19T03:06:43.770Z,17.28
2018-06-19T03:07:42.106Z,17.21
2018-06-19T03:08:42.428Z,17.25
2018-06-19T03:09:41.547Z,17.14
2018-06-19T03:10:41.629Z,17.22
2018-06-19T03:11:42.438Z,17.18
2018-06-19T03:12:42.332Z,17.18
2018-06-19T03:13:41.941Z,17.25
2018-06-19T03:14:41.932Z,17.25
2018-06-19T03:15:41.933Z,17.21
2018-06-19T03:16:42.222Z,17.20
2018-06-19T03:17:41.934Z,17.21
2018-06-19T03:18:42.051Z,17.24
2018-06-19T03:19:42.259Z,17.18
2018-06-19T03:20:42.028Z,17.18
2018-06-19T03:21:42.022Z,17.17
2018-06-19T03:22:41.940Z,17.27
2018-06-19T03:23:42.032Z,17.18
2018-06-19T03:24:42.192Z,17.17
2018-06-19T03:25:41.963Z,17.22
2018-06-19T03:26:42.036Z,17.28
2018-06-19T03:27:42.032Z,17.25
2018-06-19T03:28:41.993Z,17.20
2018-06-19T03:29:42.494Z,17.17
2018-06-19T03:30:41.920Z,17.18
2018-06-19T03:31:41.875Z,17.21
2018-06-19T03:32:41.857Z,17.24
2018-06-19T03:33:41.872Z,17.24
2018-06-19T03:34:42.228Z,17.20
2018-06-19T03:35:42.022Z,17.15
2018-06-19T03:36:42.059Z,17.24
2018-06-19T03:37:42.023Z,17.21
2018-06-19T03:38:41.889Z,17.14
2018-06-19T03:39:41.978Z,17.30
2018-06-19T03:40:41.988Z,17.21
2018-06-19T03:41:41.901Z,17.14
2018-06-19T03:42:42.016Z,17.17
2018-06-19T03:43:42.233Z,17.09
2018-06-19T03:44:42.098Z,17.24
2018-06-19T03:45:41.963Z,17.20
2018-06-19T03:46:41.943Z,17.20
2018-06-19T03:47:43.838Z,17.21
2018-06-19T03:48:42.427Z,17.24
2018-06-19T03:49:41.407Z,17.28
2018-06-19T03:50:41.395Z,17.17
2018-06-19T03:51:41.863Z,17.20
2018-06-19T03:52:41.917Z,17.20
2018-06-19T03:53:42.404Z,17.24
2018-06-19T03:54:41.468Z,17.22
2018-06-19T03:55:41.592Z,17.21
2018-06-19T03:56:41.460Z,17.27
2018-06-19T03:57:41.874Z,17.17
2018-06-19T03:58:42.046Z,17.12
2018-06-19T03:59:42.222Z,17.18
2018-06-19T04:00:41.637Z,17.25
2018-06-19T04:01:41.816Z,17.22
2018-06-19T04:02:41.865Z,17.28
2018-06-19T04:03:42.069Z,17.27
2018-06-19T04:04:42.121Z,17.30
2018-06-19T04:05:41.935Z,17.27
2018-06-19T04:06:55.842Z,17.33
2018-06-19T04:07:47.745Z,17.32
2018-06-19T04:08:41.664Z,17.39
2018-06-19T04:09:41.995Z,17.25
2018-06-19T04:10:42.048Z,17.21
2018-06-19T04:11:41.763Z,17.24
2018-06-19T04:12:42.208Z,17.22
2018-06-19T04:13:41.390Z,17.27
2018-06-19T04:14:41.631Z,17.25
2018-06-19T04:15:41.598Z,17.28
2018-06-19T04:16:41.596Z,17.28
2018-06-19T04:17:41.555Z,17.32
2018-06-19T04:18:41.922Z,17.17
2018-06-19T04:19:41.924Z,17.17
2018-06-19T04:20:41.888Z,17.28
2018-06-19T04:21:41.566Z,17.21
2018-06-19T04:22:41.923Z,17.28
2018-06-19T04:23:41.889Z,17.27
2018-06-19T04:24:41.630Z,17.28
2018-06-19T04:25:41.925Z,17.20
2018-06-19T04:26:41.873Z,17.21
2018-06-19T04:27:41.639Z,17.30
2018-06-19T04:28:41.649Z,17.24
2018-06-19T04:29:41.616Z,17.14
2018-06-19T04:30:41.623Z,17.30
2018-06-19T04:31:41.928Z,17.25
2018-06-19T04:32:41.915Z,17.36
2018-06-19T04:33:43.096Z,17.36
2018-06-19T04:34:41.930Z,17.33
2018-06-19T04:35:41.611Z,17.33
2018-06-19T04:36:41.919Z,17.35
2018-06-19T04:37:41.397Z,17.35
2018-06-19T04:38:41.684Z,17.32
2018-06-19T04:39:41.393Z,17.33
2018-06-19T04:40:41.700Z,17.42
2018-06-19T04:41:41.652Z,17.35
2018-06-19T04:43:41.931Z,17.27
2018-06-19T04:44:41.930Z,17.25
2018-06-19T04:45:42.155Z,17.25
2018-06-19T04:46:41.789Z,17.30
2018-06-19T04:47:48.238Z,17.24
2018-06-19T04:48:47.936Z,17.24
2018-06-19T04:49:41.657Z,17.33
2018-06-19T04:50:41.610Z,17.45
2018-06-19T04:51:41.906Z,17.38
2018-06-19T04:52:41.673Z,17.39
2018-06-19T04:53:41.896Z,17.35
2018-06-19T04:54:41.931Z,17.40
2018-06-19T04:55:41.630Z,17.36
2018-06-19T04:56:41.934Z,17.27
2018-06-19T04:57:41.647Z,17.22
2018-06-19T04:58:41.933Z,17.27
2018-06-19T04:59:41.630Z,17.25
2018-06-19T05:00:43.789Z,17.14
2018-06-19T05:01:41.573Z,17.27
2018-06-19T05:02:42.169Z,17.28
2018-06-19T05:03:41.855Z,17.27
2018-06-19T05:04:42.267Z,17.36
2018-06-19T05:05:41.644Z,17.38
2018-06-19T05:06:41.936Z,17.18
2018-06-19T05:07:41.937Z,17.38
2018-06-19T05:08:41.900Z,17.35
2018-06-19T05:09:41.943Z,17.32
2018-06-19T05:10:41.652Z,17.38
2018-06-19T05:11:41.938Z,17.30
2018-06-19T05:12:41.953Z,17.35
2018-06-19T05:13:41.919Z,17.40
2018-06-19T05:14:41.636Z,17.36
2018-06-19T05:15:41.944Z,17.33
2018-06-19T05:16:41.871Z,17.35
2018-06-19T05:17:41.626Z,17.40
2018-06-19T05:18:41.935Z,17.28
2018-06-19T05:19:41.614Z,17.22
2018-06-19T05:20:41.945Z,17.36
2018-06-19T05:21:41.485Z,17.36
2018-06-19T05:22:41.803Z,17.38
2018-06-19T05:23:42.239Z,17.36
2018-06-19T05:24:56.221Z,17.32
2018-06-19T05:25:41.943Z,17.33
2018-06-19T05:26:41.893Z,17.36
2018-06-19T05:27:47.946Z,17.36
2018-06-19T05:28:47.946Z,17.39
2018-06-19T05:29:42.251Z,17.38
2018-06-19T05:30:42.174Z,17.36
2018-06-19T05:31:41.302Z,17.32
2018-06-19T05:32:41.709Z,17.42
2018-06-19T05:33:41.690Z,17.47
2018-06-19T05:34:41.715Z,17.33
2018-06-19T05:35:41.687Z,17.32
2018-06-19T05:36:41.718Z,17.39
2018-06-19T05:37:41.950Z,17.49
2018-06-19T05:38:41.787Z,17.46
2018-06-19T05:39:41.809Z,17.49
2018-06-19T05:40:41.738Z,17.55
2018-06-19T05:41:42.370Z,17.47
2018-06-19T05:42:41.822Z,17.43
2018-06-19T05:43:42.369Z,17.46
2018-06-19T05:45:41.312Z,17.40
2018-06-19T05:47:36.259Z,17.49
2018-06-19T05:48:36.662Z,17.47
2018-06-19T05:50:30.574Z,17.51
2018-06-19T05:51:30.556Z,17.43
2018-06-19T05:52:30.547Z,17.42
2018-06-19T05:53:30.518Z,17.40
2018-06-19T05:54:30.537Z,17.33
2018-06-19T05:55:30.573Z,17.40
2018-06-19T05:56:30.682Z,17.40
2018-06-19T05:57:30.550Z,17.35
2018-06-19T05:58:30.840Z,17.35
2018-06-19T05:59:30.498Z,17.43
2018-06-19T06:00:30.546Z,17.33
2018-06-19T06:01:30.542Z,17.40
2018-06-19T06:02:36.559Z,17.39
2018-06-19T06:03:30.547Z,17.43
2018-06-19T06:04:30.854Z,17.38
2018-06-19T06:05:31.192Z,17.40
2018-06-19T06:07:30.173Z,17.40
2018-06-19T06:08:31.227Z,17.39
2018-06-19T06:09:30.720Z,17.45
2018-06-19T06:10:32.895Z,17.36
2018-06-19T06:11:36.842Z,17.36
2018-06-19T06:12:29.138Z,17.43
2018-06-19T06:13:58.454Z,17.45
2018-06-19T06:14:30.843Z,17.36
2018-06-19T06:15:30.895Z,17.33
2018-06-19T06:16:30.884Z,17.38
2018-06-19T06:17:31.195Z,17.27
2018-06-19T06:18:30.335Z,17.32
2018-06-19T06:19:29.086Z,17.40
2018-06-19T06:20:29.083Z,17.39
2018-06-19T06:21:30.780Z,17.39
2018-06-19T06:22:30.350Z,17.39
2018-06-19T06:23:30.576Z,17.43
2018-06-19T06:24:30.867Z,17.40
2018-06-19T06:25:29.211Z,17.42
2018-06-19T06:26:29.606Z,17.27
2018-06-19T06:27:30.642Z,17.27
2018-06-19T06:30:02.025Z,17.35
2018-06-19T06:31:01.963Z,17.28
2018-06-19T06:32:57.399Z,17.40
2018-06-19T06:33:56.203Z,17.39
2018-06-19T06:35:50.377Z,17.45
2018-06-19T06:36:50.401Z,17.40
2018-06-19T06:38:44.489Z,17.51
2018-06-19T06:39:44.491Z,17.46
2018-06-19T06:41:38.713Z,17.68
2018-06-19T06:42:38.638Z,17.74
2018-06-19T06:44:32.831Z,17.81
2018-06-19T06:45:32.816Z,17.83
2018-06-19T06:47:27.035Z,17.86
2018-06-19T06:48:28.244Z,17.83
2018-06-19T06:50:22.252Z,17.87
2018-06-19T06:51:21.883Z,18.01
2018-06-19T06:53:17.162Z,17.86
2018-06-19T06:54:16.880Z,17.92
2018-06-19T06:56:11.060Z,17.95
2018-06-19T06:57:10.209Z,17.95
2018-06-19T06:59:05.039Z,17.80
2018-06-19T07:00:04.438Z,17.81
2018-06-19T07:01:59.059Z,17.96
2018-06-19T07:02:59.386Z,17.89
2018-06-19T07:04:54.266Z,17.94
2018-06-19T07:05:54.730Z,17.94
2018-06-19T07:07:48.455Z,17.87
2018-06-19T07:08:48.681Z,17.94
2018-06-19T07:10:43.116Z,17.99
2018-06-19T07:11:43.123Z,18.09
2018-06-19T07:13:37.028Z,18.13
2018-06-19T07:14:36.800Z,18.14
2018-06-19T07:16:31.507Z,18.11
2018-06-19T07:17:31.983Z,17.99
2018-06-19T07:19:27.054Z,18.02
2018-06-19T07:20:27.027Z,18.10
2018-06-19T07:22:20.019Z,18.05
2018-06-19T07:23:20.278Z,18.14
2018-06-19T07:25:14.480Z,18.32
2018-06-19T07:26:14.740Z,18.35
2018-06-19T07:28:08.655Z,18.32
2018-06-19T07:29:08.510Z,18.29
2018-06-19T07:31:02.641Z,18.31
2018-06-19T07:32:03.676Z,18.31
2018-06-19T07:33:57.072Z,18.26
2018-06-19T07:34:57.695Z,18.29
2018-06-19T07:36:51.168Z,18.26
2018-06-19T07:37:51.802Z,18.21
2018-06-19T07:39:46.190Z,18.32
2018-06-19T07:40:46.365Z,18.35
2018-06-19T07:42:40.077Z,18.31
2018-06-19T07:43:41.951Z,18.41
2018-06-19T07:45:35.228Z,18.38
2018-06-19T07:46:34.165Z,18.46
2018-06-19T07:47:35.194Z,18.49
2018-06-19T07:48:34.587Z,18.46
2018-06-19T07:49:35.092Z,18.44
2018-06-19T07:50:34.022Z,18.47
2018-06-19T07:51:34.432Z,18.38
2018-06-19T07:52:34.665Z,18.41
2018-06-19T07:53:34.706Z,18.47
2018-06-19T07:54:34.506Z,18.47
2018-06-19T07:55:35.220Z,18.44
2018-06-19T07:56:35.119Z,18.47
2018-06-19T07:57:35.048Z,18.46
2018-06-19T07:58:34.548Z,18.42
2018-06-19T07:59:37.170Z,18.47
2018-06-19T08:00:34.209Z,18.39
2018-06-19T08:01:32.984Z,18.44
2018-06-19T08:02:34.708Z,18.31
2018-06-19T08:03:34.792Z,18.31
2018-06-19T08:04:34.727Z,18.41
2018-06-19T08:05:34.719Z,18.47
2018-06-19T08:06:34.759Z,18.49
2018-06-19T08:07:34.403Z,18.47
2018-06-19T08:08:33.973Z,18.41
2018-06-19T08:09:34.386Z,18.50
2018-06-19T08:10:34.361Z,18.53
2018-06-19T08:11:34.436Z,18.44
2018-06-19T08:12:34.708Z,18.51
2018-06-19T08:13:34.775Z,18.49
2018-06-19T08:14:37.671Z,18.50
2018-06-19T08:15:34.719Z,18.42
2018-06-19T08:16:34.738Z,18.46
2018-06-19T08:17:34.762Z,18.41
2018-06-19T08:18:34.714Z,18.46
2018-06-19T08:19:34.714Z,18.59
2018-06-19T08:20:34.713Z,18.59
2018-06-19T08:21:34.468Z,18.50
2018-06-19T08:22:34.777Z,18.51
2018-06-19T08:23:37.392Z,18.57
2018-06-19T08:24:37.046Z,18.42
2018-06-19T08:25:34.214Z,18.39
2018-06-19T08:26:35.009Z,18.39
2018-06-19T08:27:34.634Z,18.47
2018-06-19T08:28:34.685Z,18.53
2018-06-19T08:29:34.719Z,18.59
2018-06-19T08:30:33.968Z,18.59
2018-06-19T08:31:34.694Z,18.66
2018-06-19T08:32:34.402Z,18.50
2018-06-19T08:33:34.490Z,18.60
2018-06-19T08:34:34.680Z,18.59
2018-06-19T08:35:34.726Z,18.59
2018-06-19T08:36:34.434Z,18.65
2018-06-19T08:37:34.692Z,18.66
2018-06-19T08:38:34.717Z,18.59
2018-06-19T08:39:34.729Z,18.62
2018-06-19T08:40:34.789Z,18.46
2018-06-19T08:41:34.745Z,18.39
2018-06-19T08:42:35.095Z,18.46
2018-06-19T08:43:34.726Z,18.49
2018-06-19T08:44:34.723Z,18.39
2018-06-19T08:45:34.731Z,18.36
2018-06-19T08:46:34.591Z,18.31
2018-06-19T08:47:37.253Z,18.44
2018-06-19T08:48:35.255Z,18.46
2018-06-19T08:49:34.184Z,18.54
2018-06-19T08:50:34.730Z,18.64
2018-06-19T08:51:34.481Z,18.69
2018-06-19T08:52:34.618Z,18.78
2018-06-19T08:53:34.508Z,18.90
2018-06-19T08:54:42.273Z,18.84
2018-06-19T08:55:35.092Z,18.84
2018-06-19T08:56:34.074Z,18.90
2018-06-19T08:57:34.875Z,18.96
2018-06-19T08:58:35.321Z,18.94
2018-06-19T08:59:37.074Z,18.99
2018-06-19T09:00:34.716Z,19.15
2018-06-19T09:01:34.811Z,19.17
2018-06-19T09:02:35.241Z,19.23
2018-06-19T09:03:34.734Z,19.31
2018-06-19T09:04:34.497Z,19.24
2018-06-19T09:05:34.522Z,19.28
2018-06-19T09:06:34.740Z,19.27
2018-06-19T09:07:35.323Z,19.32
2018-06-19T09:08:34.746Z,19.30
2018-06-19T09:09:34.743Z,19.27
2018-06-19T09:10:34.505Z,19.27
2018-06-19T09:11:34.739Z,19.38
2018-06-19T09:12:34.746Z,19.39
2018-06-19T09:13:33.985Z,19.25
2018-06-19T09:14:34.695Z,19.24
2018-06-19T09:16:34.478Z,19.28
2018-06-19T09:17:34.668Z,19.42
2018-06-19T09:18:34.695Z,19.25
2018-06-19T09:19:34.746Z,19.24
2018-06-19T09:20:35.052Z,19.31
2018-06-19T09:21:34.696Z,19.35
2018-06-19T09:22:34.756Z,19.25
2018-06-19T09:23:34.418Z,19.21
2018-06-19T09:24:34.718Z,19.31
2018-06-19T09:25:33.972Z,19.28
2018-06-19T09:26:35.156Z,19.27
2018-06-19T09:27:34.636Z,19.39
2018-06-19T09:28:36.259Z,19.24
2018-06-19T09:29:34.699Z,19.32
2018-06-19T09:30:34.745Z,19.34
2018-06-19T09:31:34.802Z,19.34
2018-06-19T09:32:34.737Z,19.47
2018-06-19T09:33:34.699Z,19.42
2018-06-19T09:34:39.904Z,19.45
2018-06-19T09:35:40.780Z,19.47
2018-06-19T09:36:34.796Z,19.46
2018-06-19T09:37:34.796Z,19.50
2018-06-19T09:38:34.445Z,19.34
2018-06-19T09:39:34.446Z,19.27
2018-06-19T09:40:34.742Z,19.27
2018-06-19T09:41:34.439Z,19.45
2018-06-19T09:42:34.743Z,19.57
2018-06-19T09:43:34.670Z,19.40
2018-06-19T09:44:34.746Z,19.40
2018-06-19T09:45:34.759Z,19.32
2018-06-19T09:46:34.752Z,19.38
2018-06-19T09:47:34.481Z,19.47
2018-06-19T09:48:34.061Z,19.55
2018-06-19T09:49:34.710Z,19.49
2018-06-19T09:50:34.744Z,19.42
2018-06-19T09:51:34.754Z,19.31
2018-06-19T09:52:34.211Z,19.34
2018-06-19T09:53:34.816Z,19.40
2018-06-19T09:54:34.754Z,19.58
2018-06-19T09:55:34.729Z,19.68
2018-06-19T09:56:34.750Z,19.67
2018-06-19T09:57:34.710Z,19.64
2018-06-19T09:58:35.205Z,19.76
2018-06-19T09:59:34.268Z,19.68
2018-06-19T10:00:34.811Z,19.60
2018-06-19T10:01:34.230Z,19.65
2018-06-19T10:02:34.779Z,19.52
2018-06-19T10:03:34.515Z,19.25
2018-06-19T10:04:34.710Z,19.23
2018-06-19T10:05:36.468Z,19.23
2018-06-19T10:06:34.719Z,19.27
2018-06-19T10:07:34.778Z,19.31
2018-06-19T10:08:34.314Z,19.21
2018-06-19T10:09:34.755Z,19.30
2018-06-19T10:10:34.800Z,19.28
2018-06-19T10:11:35.785Z,19.25
2018-06-19T10:12:34.718Z,19.35
2018-06-19T10:13:34.761Z,19.50
2018-06-19T10:14:35.799Z,19.35
2018-06-19T10:15:34.492Z,19.40
2018-06-19T10:16:34.220Z,19.57
2018-06-19T10:17:37.872Z,19.55
2018-06-19T10:18:34.575Z,19.70
2018-06-19T10:19:34.775Z,19.78
2018-06-19T10:20:34.649Z,19.58
2018-06-19T10:21:34.668Z,19.47
2018-06-19T10:22:34.759Z,19.34
2018-06-19T10:23:34.559Z,19.47
2018-06-19T10:24:34.484Z,19.47
2018-06-19T10:25:34.804Z,19.35
2018-06-19T10:26:35.103Z,19.47
2018-06-19T10:27:36.362Z,19.58
2018-06-19T10:28:34.734Z,19.58
2018-06-19T10:29:34.527Z,19.52
2018-06-19T10:30:34.670Z,19.38
2018-06-19T10:31:34.022Z,19.47
2018-06-19T10:32:34.781Z,19.40
2018-06-19T10:33:35.245Z,19.46
2018-06-19T10:34:34.259Z,19.57
2018-06-19T10:35:34.769Z,19.50
2018-06-19T10:36:34.461Z,19.49
2018-06-19T10:37:34.735Z,19.78
2018-06-19T10:38:34.725Z,19.78
2018-06-19T10:39:34.769Z,19.85
2018-06-19T10:40:34.730Z,19.78
2018-06-19T10:41:35.057Z,19.76
2018-06-19T10:42:34.785Z,19.79
2018-06-19T10:43:34.331Z,19.89
2018-06-19T10:44:34.161Z,20.00
2018-06-19T10:45:34.274Z,20.13
2018-06-19T10:46:34.836Z,20.05
2018-06-19T10:47:34.726Z,20.01
2018-06-19T10:48:34.545Z,20.22
2018-06-19T10:49:34.814Z,20.22
2018-06-19T10:50:34.727Z,20.26
2018-06-19T10:51:34.989Z,20.40
2018-06-19T10:52:34.581Z,20.27
2018-06-19T10:53:34.510Z,20.38
2018-06-19T10:54:35.092Z,20.41
2018-06-19T10:55:37.117Z,20.41
2018-06-19T10:56:34.539Z,20.40
2018-06-19T10:57:35.869Z,20.42
2018-06-19T10:58:34.519Z,20.51
2018-06-19T10:59:34.299Z,20.51
2018-06-19T11:00:35.159Z,20.50
2018-06-19T11:01:34.731Z,20.50
2018-06-19T11:02:34.792Z,20.50
2018-06-19T11:03:34.537Z,20.61
2018-06-19T11:04:34.524Z,20.42
2018-06-19T11:05:34.758Z,20.44
2018-06-19T11:06:34.957Z,20.54
2018-06-19T11:07:34.244Z,20.69
2018-06-19T11:08:34.631Z,20.79
2018-06-19T11:09:35.265Z,20.85
2018-06-19T11:10:34.802Z,20.64
2018-06-19T11:11:35.701Z,20.85
2018-06-19T11:12:34.329Z,20.87
2018-06-19T11:13:34.502Z,20.91
2018-06-19T11:14:34.821Z,20.96
2018-06-19T11:15:34.510Z,20.93
2018-06-19T11:16:34.500Z,20.97
2018-06-19T11:17:34.780Z,21.05
2018-06-19T11:18:36.760Z,21.13
2018-06-19T11:19:35.107Z,21.34
2018-06-19T11:20:34.780Z,21.37
2018-06-19T11:21:34.286Z,21.53
2018-06-19T11:22:36.744Z,21.61
2018-06-19T11:23:34.766Z,21.59
2018-06-19T11:24:34.791Z,21.70
2018-06-19T11:25:36.897Z,21.94
2018-06-19T11:26:34.823Z,22.02
2018-06-19T11:27:34.540Z,21.86
2018-06-19T11:28:34.793Z,22.11
2018-06-19T11:29:34.266Z,22.19
2018-06-19T11:30:34.786Z,22.46
2018-06-19T11:31:34.749Z,22.39
2018-06-19T11:32:34.815Z,22.31
2018-06-19T11:33:34.785Z,22.57
2018-06-19T11:34:34.796Z,22.31
2018-06-19T11:35:35.137Z,22.51
2018-06-19T11:36:34.189Z,22.38
2018-06-19T11:37:36.350Z,22.31
2018-06-19T11:38:34.859Z,22.31
2018-06-19T11:39:35.527Z,22.46
2018-06-19T11:40:35.112Z,22.35
2018-06-19T11:41:34.546Z,21.99
2018-06-19T11:42:34.556Z,22.14
2018-06-19T11:43:35.194Z,21.99
2018-06-19T11:44:34.829Z,22.06
2018-06-19T11:45:34.820Z,22.12
2018-06-19T11:46:34.352Z,22.31
2018-06-19T11:47:34.639Z,22.64
2018-06-19T11:48:34.605Z,22.86
2018-06-19T11:49:34.804Z,22.30
2018-06-19T11:50:34.753Z,22.57
2018-06-19T11:51:34.792Z,22.86
2018-06-19T11:52:34.588Z,22.99
2018-06-19T11:53:34.518Z,22.79
2018-06-19T11:54:34.806Z,22.67
2018-06-19T11:55:34.801Z,22.74
2018-06-19T11:56:34.815Z,22.61
2018-06-19T11:57:34.802Z,22.36
2018-06-19T11:58:34.757Z,22.33
2018-06-19T11:59:34.758Z,22.57
2018-06-19T12:00:34.811Z,22.44
2018-06-19T12:01:35.683Z,22.20
2018-06-19T12:02:34.269Z,22.29
2018-06-19T12:03:34.759Z,22.42
2018-06-19T12:04:36.102Z,22.30
2018-06-19T12:05:34.389Z,22.08
2018-06-19T12:06:34.802Z,21.98
2018-06-19T12:07:34.211Z,22.05
2018-06-19T12:08:34.858Z,22.14
2018-06-19T12:09:34.801Z,22.09
2018-06-19T12:10:34.508Z,21.93
2018-06-19T12:11:34.598Z,21.94
2018-06-19T12:12:34.848Z,21.74
2018-06-19T12:13:34.709Z,21.83
2018-06-19T12:14:34.836Z,22.06
2018-06-19T12:15:35.159Z,22.30
2018-06-19T12:16:34.793Z,22.08
2018-06-19T12:17:34.591Z,22.31
2018-06-19T12:18:34.788Z,22.19
2018-06-19T12:19:34.722Z,22.19
2018-06-19T12:20:34.783Z,22.19
2018-06-19T12:21:34.839Z,22.01
2018-06-19T12:22:34.274Z,21.86
2018-06-19T12:23:34.657Z,22.04
2018-06-19T12:24:34.818Z,22.19
2018-06-19T12:25:34.769Z,22.20
2018-06-19T12:26:34.815Z,22.20
2018-06-19T12:27:34.774Z,22.42
2018-06-19T12:28:34.820Z,22.56
2018-06-19T12:29:34.567Z,22.59
2018-06-19T12:30:34.815Z,22.44
2018-06-19T12:31:34.539Z,22.44
2018-06-19T12:32:34.820Z,22.42
2018-06-19T12:33:34.818Z,22.20
2018-06-19T12:34:35.100Z,22.20
2018-06-19T12:35:35.331Z,22.23
2018-06-19T12:37:34.358Z,22.24
2018-06-19T12:38:35.150Z,22.21
2018-06-19T12:39:34.817Z,22.29
2018-06-19T12:40:34.820Z,22.59
2018-06-19T12:41:34.630Z,22.78
2018-06-19T12:42:34.548Z,22.97
2018-06-19T12:43:34.549Z,22.63
2018-06-19T12:44:34.819Z,22.76
2018-06-19T12:45:34.643Z,22.75
2018-06-19T12:46:35.120Z,22.79
2018-06-19T12:47:34.277Z,22.93
2018-06-19T12:48:34.823Z,22.75
2018-06-19T12:49:34.645Z,22.63
2018-06-19T12:50:34.593Z,22.66
2018-06-19T12:51:34.741Z,22.35
2018-06-19T12:52:35.070Z,22.36
2018-06-19T12:53:34.829Z,22.39
2018-06-19T12:54:34.825Z,22.33
2018-06-19T12:55:35.255Z,22.30
2018-06-19T12:56:34.685Z,22.42
2018-06-19T12:57:36.347Z,22.48
2018-06-19T12:58:34.854Z,22.72
2018-06-19T12:59:35.133Z,22.89
2018-06-19T13:00:34.869Z,22.99
2018-06-19T13:01:35.292Z,23.12
2018-06-19T13:02:35.269Z,23.15
2018-06-19T13:03:34.720Z,23.09
2018-06-19T13:04:37.219Z,23.09
2018-06-19T13:05:34.586Z,23.04
2018-06-19T13:06:34.832Z,23.22
2018-06-19T13:07:34.688Z,23.14
2018-06-19T13:08:34.647Z,23.16
2018-06-19T13:09:35.130Z,23.49
2018-06-19T13:10:35.141Z,23.42
2018-06-19T13:11:34.795Z,23.09
2018-06-19T13:12:35.150Z,23.04
2018-06-19T13:13:34.892Z,23.22
2018-06-19T13:14:35.248Z,23.01
2018-06-19T13:15:34.840Z,22.84
2018-06-19T13:16:35.142Z,22.64
2018-06-19T13:17:34.303Z,22.56
2018-06-19T13:18:34.839Z,22.76
2018-06-19T13:19:34.906Z,22.99
2018-06-19T13:20:34.793Z,23.11
2018-06-19T13:21:36.337Z,23.44
2018-06-19T13:22:35.105Z,23.57
2018-06-19T13:23:34.671Z,23.72
2018-06-19T13:24:34.834Z,23.97
2018-06-19T13:25:34.866Z,24.31